Reno, NV (89501)

2:49 PM PDT on August 31, 2016 (GMT -0700)
UNR Campus, LMR Roof | | Change Station

Elev 4570 ft 39.54 °N, 119.81 °W | Updated 29 seconds ago

Partly Cloudy
Partly Cloudy
88.5 °F
Feels Like 85 °F
N
10.1
Wind Variable Wind from WSW
Gusts 18.0 mph

Today
High -- | Low -- °F
--% Chance of Precip.
Yesterday
High -- | Low -- °F
Precip. -- in
Pressure 29.78 in
Visibility 10.0 miles
Clouds Few 11000 ft
Few 15000 ft
Few 20000 ft
Heat Index 85 °F
Dew Point 36 °F
Humidity 15%
Rainfall 0.00 in
Snow Depth Not available.
6:27 AM 7:30 PM
Waning Crescent, 0% visible
METAR KRNO 312055Z 23022G31KT 10SM FEW110 FEW150 FEW200 32/00 A2997 RMK AO2 PK WND 21031/2046 SLP083 ACSL DSNT NW FU ALF ALQDS HZ ALQDS T03220000 58016
Pressure 29.78 in
Visibility 10.0 miles
Clouds Few 11000 ft
Few 15000 ft
Few 20000 ft
Heat Index 85 °F
Dew Point 36 °F
Humidity 15%
Rainfall 0.00 in
Snow Depth Not available.
6:27 AM 7:30 PM
Waning Crescent, 0% visible
METAR KRNO 312055Z 23022G31KT 10SM FEW110 FEW150 FEW200 32/00 A2997 RMK AO2 PK WND 21031/2046 SLP083 ACSL DSNT NW FU ALF ALQDS HZ ALQDS T03220000 58016

10-Day Weather Forecast

Almanac

Astronomy

Aug. 31, 2016 Rise Set
Actual Time
Civil Twilight
Nautical Twilight
Astronomical Twilight
Moon
Length of Visible Light
Length of Day
Tomorrow will be .
, % of the Moon is Illuminated

Today's Extremes

State Highs State Lows

Community

WunderPhotos

Upload Photos

1,936,189 photos uploaded!

WunderBlog® & News

Nearby

Air Quality

  Air Quality AQ Index Pollutant
Not available.

Snow Depth

Station Depth Elevation

Earthquake Activity

City Distance Mag. Time & Date
Minimum magnitude displayed is 2.5.

Coastal Water Temperatures

Place Temperature

Stations

Nearby Weather Stations

Station Location Temp. Windchill Dew Point Humidity Wind Precip. Elev Updated Type
                   

Watches & Warnings

There are currently no watches in effect.